sensor_id;sensor_type;location;lat;lon;timestamp;temperature;humidity
23815;DHT22;12088;53.078;8.720;2023-04-03T00:01:21;1.60;99.90
23815;DHT22;12088;53.078;8.720;2023-04-03T00:03:47;1.60;99.90
23815;DHT22;12088;53.078;8.720;2023-04-03T00:06:13;1.50;99.90
23815;DHT22;12088;53.078;8.720;2023-04-03T00:08:41;1.50;99.90
23815;DHT22;12088;53.078;8.720;2023-04-03T00:11:07;1.50;99.90
23815;DHT22;12088;53.078;8.720;2023-04-03T00:13:34;1.40;99.90
23815;DHT22;12088;53.078;8.720;2023-04-03T00:15:59;1.50;99.90
23815;DHT22;12088;53.078;8.720;2023-04-03T00:18:25;1.30;99.90
23815;DHT22;12088;53.078;8.720;2023-04-03T00:20:51;1.30;99.90
23815;DHT22;12088;53.078;8.720;2023-04-03T00:23:16;1.20;99.90
23815;DHT22;12088;53.078;8.720;2023-04-03T00:25:43;1.10;99.90
23815;DHT22;12088;53.078;8.720;2023-04-03T00:28:09;1.10;99.90
23815;DHT22;12088;53.078;8.720;2023-04-03T00:30:35;1.00;99.90
23815;DHT22;12088;53.078;8.720;2023-04-03T00:33:01;1.00;99.90
23815;DHT22;12088;53.078;8.720;2023-04-03T00:35:27;0.90;99.90
23815;DHT22;12088;53.078;8.720;2023-04-03T00:37:54;0.80;99.90
23815;DHT22;12088;53.078;8.720;2023-04-03T00:40:23;0.70;99.90
23815;DHT22;12088;53.078;8.720;2023-04-03T00:42:51;0.70;99.90
23815;DHT22;12088;53.078;8.720;2023-04-03T00:47:49;0.90;99.90
23815;DHT22;12088;53.078;8.720;2023-04-03T00:50:15;0.90;99.90
23815;DHT22;12088;53.078;8.720;2023-04-03T00:52:43;0.90;99.90
23815;DHT22;12088;53.078;8.720;2023-04-03T00:55:12;1.00;99.90
23815;DHT22;12088;53.078;8.720;2023-04-03T00:57:40;1.00;99.90
23815;DHT22;12088;53.078;8.720;2023-04-03T01:00:09;1.00;99.90
23815;DHT22;12088;53.078;8.720;2023-04-03T01:02:36;1.00;99.90
23815;DHT22;12088;53.078;8.720;2023-04-03T01:05:01;1.00;99.90
23815;DHT22;12088;53.078;8.720;2023-04-03T01:07:30;1.00;99.90
23815;DHT22;12088;53.078;8.720;2023-04-03T01:09:58;0.90;99.90
23815;DHT22;12088;53.078;8.720;2023-04-03T01:12:35;0.90;99.90
23815;DHT22;12088;53.078;8.720;2023-04-03T01:17:32;0.90;99.90
23815;DHT22;12088;53.078;8.720;2023-04-03T01:28:09;0.60;99.90
23815;DHT22;12088;53.078;8.720;2023-04-03T01:31:12;0.60;99.90
23815;DHT22;12088;53.078;8.720;2023-04-03T01:33:29;0.50;99.90
23815;DHT22;12088;53.078;8.720;2023-04-03T01:35:54;0.50;99.90
23815;DHT22;12088;53.078;8.720;2023-04-03T01:38:20;0.50;99.90
23815;DHT22;12088;53.078;8.720;2023-04-03T01:40:46;0.50;99.90
23815;DHT22;12088;53.078;8.720;2023-04-03T01:43:11;0.60;99.90
23815;DHT22;12088;53.078;8.720;2023-04-03T01:45:37;0.50;99.90
23815;DHT22;12088;53.078;8.720;2023-04-03T01:48:03;0.50;99.90
23815;DHT22;12088;53.078;8.720;2023-04-03T01:50:29;0.50;99.90
23815;DHT22;12088;53.078;8.720;2023-04-03T01:52:54;0.50;99.90
23815;DHT22;12088;53.078;8.720;2023-04-03T01:55:20;0.50;99.90
23815;DHT22;12088;53.078;8.720;2023-04-03T01:57:45;0.40;99.90
23815;DHT22;12088;53.078;8.720;2023-04-03T02:00:11;0.40;99.90
23815;DHT22;12088;53.078;8.720;2023-04-03T02:02:38;0.40;99.90
23815;DHT22;12088;53.078;8.720;2023-04-03T02:05:03;0.40;99.90
23815;DHT22;12088;53.078;8.720;2023-04-03T02:07:29;0.30;99.90
23815;DHT22;12088;53.078;8.720;2023-04-03T02:09:55;0.30;99.90
23815;DHT22;12088;53.078;8.720;2023-04-03T02:12:20;0.30;99.90
23815;DHT22;12088;53.078;8.720;2023-04-03T02:14:46;0.30;99.90
23815;DHT22;12088;53.078;8.720;2023-04-03T02:17:12;0.30;99.90
23815;DHT22;12088;53.078;8.720;2023-04-03T02:19:37;0.20;99.90
23815;DHT22;12088;53.078;8.720;2023-04-03T02:22:04;0.20;99.90
23815;DHT22;12088;53.078;8.720;2023-04-03T02:24:30;0.30;99.90
23815;DHT22;12088;53.078;8.720;2023-04-03T02:26:56;0.20;99.90
23815;DHT22;12088;53.078;8.720;2023-04-03T02:29:22;0.20;99.90
23815;DHT22;12088;53.078;8.720;2023-04-03T02:31:48;0.10;99.90
23815;DHT22;12088;53.078;8.720;2023-04-03T02:34:14;0.10;99.90
23815;DHT22;12088;53.078;8.720;2023-04-03T02:36:40;0.10;99.90
23815;DHT22;12088;53.078;8.720;2023-04-03T02:39:06;0.10;99.90
23815;DHT22;12088;53.078;8.720;2023-04-03T02:41:31;0.10;99.90
23815;DHT22;12088;53.078;8.720;2023-04-03T02:44:04;0.20;99.90
23815;DHT22;12088;53.078;8.720;2023-04-03T02:46:31;0.20;99.90
23815;DHT22;12088;53.078;8.720;2023-04-03T02:48:56;0.30;99.90
23815;DHT22;12088;53.078;8.720;2023-04-03T02:51:22;0.20;99.90
23815;DHT22;12088;53.078;8.720;2023-04-03T02:53:48;0.10;99.90
23815;DHT22;12088;53.078;8.720;2023-04-03T02:56:14;0.20;99.90
23815;DHT22;12088;53.078;8.720;2023-04-03T02:58:40;0.20;99.90
23815;DHT22;12088;53.078;8.720;2023-04-03T03:01:05;0.20;99.90
23815;DHT22;12088;53.078;8.720;2023-04-03T03:03:31;0.10;99.90
23815;DHT22;12088;53.078;8.720;2023-04-03T03:06:11;0.10;99.90
23815;DHT22;12088;53.078;8.720;2023-04-03T03:08:37;0.10;99.90
23815;DHT22;12088;53.078;8.720;2023-04-03T03:11:03;0.10;99.90
23815;DHT22;12088;53.078;8.720;2023-04-03T03:13:30;0.10;99.90
23815;DHT22;12088;53.078;8.720;2023-04-03T03:15:56;0.10;99.90
23815;DHT22;12088;53.078;8.720;2023-04-03T03:18:22;0.10;99.90
23815;DHT22;12088;53.078;8.720;2023-04-03T03:20:53;0.00;99.90
23815;DHT22;12088;53.078;8.720;2023-04-03T03:23:19;0.00;99.90
23815;DHT22;12088;53.078;8.720;2023-04-03T03:25:45;0.00;99.90
23815;DHT22;12088;53.078;8.720;2023-04-03T03:28:10;0.00;99.90
23815;DHT22;12088;53.078;8.720;2023-04-03T03:30:37;0.00;99.90
23815;DHT22;12088;53.078;8.720;2023-04-03T03:33:03;0.00;99.90
23815;DHT22;12088;53.078;8.720;2023-04-03T03:35:29;-0.10;99.90
23815;DHT22;12088;53.078;8.720;2023-04-03T03:37:54;-0.10;99.90
23815;DHT22;12088;53.078;8.720;2023-04-03T03:40:20;0.00;99.90
23815;DHT22;12088;53.078;8.720;2023-04-03T03:42:46;0.00;99.90
23815;DHT22;12088;53.078;8.720;2023-04-03T03:45:11;0.00;99.90
23815;DHT22;12088;53.078;8.720;2023-04-03T03:47:37;0.00;99.90
23815;DHT22;12088;53.078;8.720;2023-04-03T03:50:03;0.10;99.90
23815;DHT22;12088;53.078;8.720;2023-04-03T03:52:29;-0.10;99.90
23815;DHT22;12088;53.078;8.720;2023-04-03T03:54:56;0.00;99.90
23815;DHT22;12088;53.078;8.720;2023-04-03T03:57:21;0.00;99.90
23815;DHT22;12088;53.078;8.720;2023-04-03T03:59:47;0.00;99.90
23815;DHT22;12088;53.078;8.720;2023-04-03T04:02:14;0.00;99.90
23815;DHT22;12088;53.078;8.720;2023-04-03T04:04:40;-0.10;99.90
23815;DHT22;12088;53.078;8.720;2023-04-03T04:07:05;-0.10;99.90
23815;DHT22;12088;53.078;8.720;2023-04-03T04:09:31;-0.10;99.90
23815;DHT22;12088;53.078;8.720;2023-04-03T04:11:56;-0.10;99.90
23815;DHT22;12088;53.078;8.720;2023-04-03T04:14:22;-0.20;99.90
23815;DHT22;12088;53.078;8.720;2023-04-03T04:16:48;0.00;99.90
23815;DHT22;12088;53.078;8.720;2023-04-03T04:19:14;0.00;99.90
23815;DHT22;12088;53.078;8.720;2023-04-03T04:21:40;0.00;99.90
23815;DHT22;12088;53.078;8.720;2023-04-03T04:24:07;-0.10;99.90
23815;DHT22;12088;53.078;8.720;2023-04-03T04:26:32;-0.10;99.90
23815;DHT22;12088;53.078;8.720;2023-04-03T04:28:58;-0.10;99.90
23815;DHT22;12088;53.078;8.720;2023-04-03T04:31:24;0.00;99.90
23815;DHT22;12088;53.078;8.720;2023-04-03T04:33:49;-0.10;99.90
23815;DHT22;12088;53.078;8.720;2023-04-03T04:36:15;-0.10;99.90
23815;DHT22;12088;53.078;8.720;2023-04-03T04:38:41;0.00;99.90
23815;DHT22;12088;53.078;8.720;2023-04-03T04:41:07;0.00;99.90
23815;DHT22;12088;53.078;8.720;2023-04-03T04:43:33;-0.10;99.90
23815;DHT22;12088;53.078;8.720;2023-04-03T04:46:09;0.00;99.90
23815;DHT22;12088;53.078;8.720;2023-04-03T04:48:36;0.00;99.90
23815;DHT22;12088;53.078;8.720;2023-04-03T04:51:02;0.00;99.90
23815;DHT22;12088;53.078;8.720;2023-04-03T04:53:28;0.10;99.90
23815;DHT22;12088;53.078;8.720;2023-04-03T04:55:54;0.00;99.90
23815;DHT22;12088;53.078;8.720;2023-04-03T04:58:20;0.00;99.90
23815;DHT22;12088;53.078;8.720;2023-04-03T05:00:46;0.00;99.90
23815;DHT22;12088;53.078;8.720;2023-04-03T05:03:11;0.10;99.90
23815;DHT22;12088;53.078;8.720;2023-04-03T05:05:37;0.10;99.90
23815;DHT22;12088;53.078;8.720;2023-04-03T05:08:03;0.00;99.90
23815;DHT22;12088;53.078;8.720;2023-04-03T05:10:29;0.00;99.90
23815;DHT22;12088;53.078;8.720;2023-04-03T05:12:55;0.00;99.90
23815;DHT22;12088;53.078;8.720;2023-04-03T05:15:20;0.00;99.90
23815;DHT22;12088;53.078;8.720;2023-04-03T05:17:46;0.00;99.90
23815;DHT22;12088;53.078;8.720;2023-04-03T05:20:12;0.00;99.90
23815;DHT22;12088;53.078;8.720;2023-04-03T05:22:38;0.10;99.90
23815;DHT22;12088;53.078;8.720;2023-04-03T05:25:05;0.10;99.90
23815;DHT22;12088;53.078;8.720;2023-04-03T05:27:30;0.20;99.90
23815;DHT22;12088;53.078;8.720;2023-04-03T05:29:56;0.20;99.90
23815;DHT22;12088;53.078;8.720;2023-04-03T05:32:23;0.20;99.90
23815;DHT22;12088;53.078;8.720;2023-04-03T05:34:50;0.30;99.90
23815;DHT22;12088;53.078;8.720;2023-04-03T05:37:17;0.40;99.90
23815;DHT22;12088;53.078;8.720;2023-04-03T05:39:42;0.40;99.90
23815;DHT22;12088;53.078;8.720;2023-04-03T05:42:08;0.50;99.90
23815;DHT22;12088;53.078;8.720;2023-04-03T05:44:33;0.50;99.90
23815;DHT22;12088;53.078;8.720;2023-04-03T05:46:59;0.60;99.90
23815;DHT22;12088;53.078;8.720;2023-04-03T05:49:25;0.70;99.90
23815;DHT22;12088;53.078;8.720;2023-04-03T05:51:50;0.70;99.90
23815;DHT22;12088;53.078;8.720;2023-04-03T05:54:25;0.80;99.90
23815;DHT22;12088;53.078;8.720;2023-04-03T05:56:51;0.90;99.90
23815;DHT22;12088;53.078;8.720;2023-04-03T05:59:17;1.00;99.90
23815;DHT22;12088;53.078;8.720;2023-04-03T06:01:43;1.10;99.90
23815;DHT22;12088;53.078;8.720;2023-04-03T06:04:09;1.10;99.90
23815;DHT22;12088;53.078;8.720;2023-04-03T06:06:51;1.20;99.90
23815;DHT22;12088;53.078;8.720;2023-04-03T06:09:18;1.20;99.90
23815;DHT22;12088;53.078;8.720;2023-04-03T06:11:44;1.30;99.90
23815;DHT22;12088;53.078;8.720;2023-04-03T06:14:10;1.30;99.90
23815;DHT22;12088;53.078;8.720;2023-04-03T06:16:36;1.40;99.90
23815;DHT22;12088;53.078;8.720;2023-04-03T06:19:02;1.40;99.90
23815;DHT22;12088;53.078;8.720;2023-04-03T06:21:28;1.50;99.90
23815;DHT22;12088;53.078;8.720;2023-04-03T06:23:53;1.60;99.90
23815;DHT22;12088;53.078;8.720;2023-04-03T06:26:19;1.60;99.90
23815;DHT22;12088;53.078;8.720;2023-04-03T06:28:46;1.70;99.90
23815;DHT22;12088;53.078;8.720;2023-04-03T06:31:11;1.80;99.90
23815;DHT22;12088;53.078;8.720;2023-04-03T06:33:37;1.80;99.90
23815;DHT22;12088;53.078;8.720;2023-04-03T06:36:05;1.90;99.90
23815;DHT22;12088;53.078;8.720;2023-04-03T06:38:33;2.00;99.90
23815;DHT22;12088;53.078;8.720;2023-04-03T06:40:59;2.00;99.90
23815;DHT22;12088;53.078;8.720;2023-04-03T06:43:25;2.10;99.90
23815;DHT22;12088;53.078;8.720;2023-04-03T06:45:51;2.10;99.90
23815;DHT22;12088;53.078;8.720;2023-04-03T06:48:17;2.30;99.90
23815;DHT22;12088;53.078;8.720;2023-04-03T06:50:42;2.30;99.90
23815;DHT22;12088;53.078;8.720;2023-04-03T06:53:08;2.40;99.90
23815;DHT22;12088;53.078;8.720;2023-04-03T06:55:34;2.50;99.90
23815;DHT22;12088;53.078;8.720;2023-04-03T06:58:00;2.70;99.90
23815;DHT22;12088;53.078;8.720;2023-04-03T07:00:26;2.80;99.90
23815;DHT22;12088;53.078;8.720;2023-04-03T07:02:51;3.00;99.90
23815;DHT22;12088;53.078;8.720;2023-04-03T07:05:18;3.20;99.90
23815;DHT22;12088;53.078;8.720;2023-04-03T07:07:43;3.40;99.90
23815;DHT22;12088;53.078;8.720;2023-04-03T07:10:09;3.60;99.90
23815;DHT22;12088;53.078;8.720;2023-04-03T07:12:36;3.90;99.90
23815;DHT22;12088;53.078;8.720;2023-04-03T07:15:02;4.00;99.90
23815;DHT22;12088;53.078;8.720;2023-04-03T07:17:28;4.10;99.90
23815;DHT22;12088;53.078;8.720;2023-04-03T07:19:53;4.30;99.90
23815;DHT22;12088;53.078;8.720;2023-04-03T07:22:19;4.20;99.90
23815;DHT22;12088;53.078;8.720;2023-04-03T07:24:45;4.40;99.90
23815;DHT22;12088;53.078;8.720;2023-04-03T07:27:11;4.50;99.90
23815;DHT22;12088;53.078;8.720;2023-04-03T07:29:37;4.70;99.90
23815;DHT22;12088;53.078;8.720;2023-04-03T07:32:04;4.90;99.90
23815;DHT22;12088;53.078;8.720;2023-04-03T07:34:31;4.90;99.90
23815;DHT22;12088;53.078;8.720;2023-04-03T07:36:56;5.10;99.90
23815;DHT22;12088;53.078;8.720;2023-04-03T07:39:23;5.10;99.90
23815;DHT22;12088;53.078;8.720;2023-04-03T07:41:48;5.20;99.90
23815;DHT22;12088;53.078;8.720;2023-04-03T07:44:14;5.30;99.90
23815;DHT22;12088;53.078;8.720;2023-04-03T07:46:39;5.20;99.90
23815;DHT22;12088;53.078;8.720;2023-04-03T07:49:06;5.30;99.90
23815;DHT22;12088;53.078;8.720;2023-04-03T07:51:32;5.30;99.90
23815;DHT22;12088;53.078;8.720;2023-04-03T07:53:57;5.50;99.90
23815;DHT22;12088;53.078;8.720;2023-04-03T07:56:23;5.60;99.90
23815;DHT22;12088;53.078;8.720;2023-04-03T07:58:50;5.80;99.90
23815;DHT22;12088;53.078;8.720;2023-04-03T08:01:16;6.10;99.90
23815;DHT22;12088;53.078;8.720;2023-04-03T08:03:41;5.90;99.90
23815;DHT22;12088;53.078;8.720;2023-04-03T08:06:08;5.90;99.90
23815;DHT22;12088;53.078;8.720;2023-04-03T08:08:34;6.20;99.90
23815;DHT22;12088;53.078;8.720;2023-04-03T08:11:01;6.50;99.90
23815;DHT22;12088;53.078;8.720;2023-04-03T08:13:29;6.70;99.90
23815;DHT22;12088;53.078;8.720;2023-04-03T08:15:55;6.80;99.90
23815;DHT22;12088;53.078;8.720;2023-04-03T08:18:23;7.10;99.90
23815;DHT22;12088;53.078;8.720;2023-04-03T08:20:50;7.40;99.90
23815;DHT22;12088;53.078;8.720;2023-04-03T08:23:17;7.80;99.90
23815;DHT22;12088;53.078;8.720;2023-04-03T08:25:44;8.10;99.90
23815;DHT22;12088;53.078;8.720;2023-04-03T08:28:11;8.60;99.90
23815;DHT22;12088;53.078;8.720;2023-04-03T08:30:40;9.00;99.90
23815;DHT22;12088;53.078;8.720;2023-04-03T08:33:06;9.10;99.90
23815;DHT22;12088;53.078;8.720;2023-04-03T08:35:32;9.50;99.90
23815;DHT22;12088;53.078;8.720;2023-04-03T08:37:58;9.80;99.90
23815;DHT22;12088;53.078;8.720;2023-04-03T08:40:24;10.00;99.90
23815;DHT22;12088;53.078;8.720;2023-04-03T08:48:00;11.00;99.90
23815;DHT22;12088;53.078;8.720;2023-04-03T08:50:36;11.40;99.90
23815;DHT22;12088;53.078;8.720;2023-04-03T08:53:03;11.60;99.90
23815;DHT22;12088;53.078;8.720;2023-04-03T08:55:37;11.30;99.90
23815;DHT22;12088;53.078;8.720;2023-04-03T08:58:10;11.20;99.90
23815;DHT22;12088;53.078;8.720;2023-04-03T09:00:51;11.50;99.90
23815;DHT22;12088;53.078;8.720;2023-04-03T09:03:20;11.40;99.90
23815;DHT22;12088;53.078;8.720;2023-04-03T09:11:26;11.90;99.90
23815;DHT22;12088;53.078;8.720;2023-04-03T09:16:54;12.70;99.90
23815;DHT22;12088;53.078;8.720;2023-04-03T09:22:09;13.80;99.90
23815;DHT22;12088;53.078;8.720;2023-04-03T09:24:35;14.20;99.90
23815;DHT22;12088;53.078;8.720;2023-04-03T09:27:06;14.50;95.30
23815;DHT22;12088;53.078;8.720;2023-04-03T09:29:36;14.00;98.10
23815;DHT22;12088;53.078;8.720;2023-04-03T09:34:44;14.80;98.20
23815;DHT22;12088;53.078;8.720;2023-04-03T09:37:12;14.40;99.10
23815;DHT22;12088;53.078;8.720;2023-04-03T09:39:57;14.20;96.80
23815;DHT22;12088;53.078;8.720;2023-04-03T09:42:24;14.00;99.80
23815;DHT22;12088;53.078;8.720;2023-04-03T09:45:02;14.00;98.40
23815;DHT22;12088;53.078;8.720;2023-04-03T09:47:33;14.50;99.90
23815;DHT22;12088;53.078;8.720;2023-04-03T09:52:46;14.80;94.60
23815;DHT22;12088;53.078;8.720;2023-04-03T09:55:24;14.50;96.70
23815;DHT22;12088;53.078;8.720;2023-04-03T09:57:56;14.80;97.50
23815;DHT22;12088;53.078;8.720;2023-04-03T10:00:31;15.90;93.80
23815;DHT22;12088;53.078;8.720;2023-04-03T10:02:59;15.80;96.40
23815;DHT22;12088;53.078;8.720;2023-04-03T10:05:37;16.00;95.80
23815;DHT22;12088;53.078;8.720;2023-04-03T10:10:40;16.80;92.70
23815;DHT22;12088;53.078;8.720;2023-04-03T10:13:09;16.30;95.30
23815;DHT22;12088;53.078;8.720;2023-04-03T10:15:41;15.40;91.80
23815;DHT22;12088;53.078;8.720;2023-04-03T10:20:59;15.10;95.20
23815;DHT22;12088;53.078;8.720;2023-04-03T10:23:40;14.80;97.50
23815;DHT22;12088;53.078;8.720;2023-04-03T10:31:40;16.10;94.50
23815;DHT22;12088;53.078;8.720;2023-04-03T10:34:35;16.90;93.60
23815;DHT22;12088;53.078;8.720;2023-04-03T10:39:54;16.00;94.00
23815;DHT22;12088;53.078;8.720;2023-04-03T10:42:39;16.20;95.90
23815;DHT22;12088;53.078;8.720;2023-04-03T10:45:56;16.70;91.50
23815;DHT22;12088;53.078;8.720;2023-04-03T10:53:56;16.30;92.20
23815;DHT22;12088;53.078;8.720;2023-04-03T10:59:21;16.80;93.90
23815;DHT22;12088;53.078;8.720;2023-04-03T11:01:57;17.20;93.70
23815;DHT22;12088;53.078;8.720;2023-04-03T11:04:27;17.10;93.60
23815;DHT22;12088;53.078;8.720;2023-04-03T11:07:02;17.50;91.30
23815;DHT22;12088;53.078;8.720;2023-04-03T11:09:35;17.50;92.40
23815;DHT22;12088;53.078;8.720;2023-04-03T11:12:23;16.80;93.80
23815;DHT22;12088;53.078;8.720;2023-04-03T11:14:51;16.50;91.90
23815;DHT22;12088;53.078;8.720;2023-04-03T11:23:16;17.40;94.80
23815;DHT22;12088;53.078;8.720;2023-04-03T11:25:46;18.40;92.30
23815;DHT22;12088;53.078;8.720;2023-04-03T11:28:14;18.00;93.20
23815;DHT22;12088;53.078;8.720;2023-04-03T11:31:23;17.20;91.80
23815;DHT22;12088;53.078;8.720;2023-04-03T11:34:06;17.20;91.50
23815;DHT22;12088;53.078;8.720;2023-04-03T11:36:46;17.20;92.60
23815;DHT22;12088;53.078;8.720;2023-04-03T11:41:47;17.50;92.40
23815;DHT22;12088;53.078;8.720;2023-04-03T11:46:58;15.50;92.20
23815;DHT22;12088;53.078;8.720;2023-04-03T11:49:57;14.50;92.90
23815;DHT22;12088;53.078;8.720;2023-04-03T12:05:51;17.70;91.80
23815;DHT22;12088;53.078;8.720;2023-04-03T12:08:43;14.70;88.70
23815;DHT22;12088;53.078;8.720;2023-04-03T12:16:09;15.70;92.70
23815;DHT22;12088;53.078;8.720;2023-04-03T12:26:44;17.30;94.60
23815;DHT22;12088;53.078;8.720;2023-04-03T12:29:33;16.80;92.10
23815;DHT22;12088;53.078;8.720;2023-04-03T12:46:19;14.30;94.80
23815;DHT22;12088;53.078;8.720;2023-04-03T12:48:51;15.30;92.70
23815;DHT22;12088;53.078;8.720;2023-04-03T12:51:40;14.00;92.10
23815;DHT22;12088;53.078;8.720;2023-04-03T12:54:19;15.20;91.50
23815;DHT22;12088;53.078;8.720;2023-04-03T12:56:47;16.30;93.40
23815;DHT22;12088;53.078;8.720;2023-04-03T12:59:21;17.20;91.20
23815;DHT22;12088;53.078;8.720;2023-04-03T13:01:58;17.30;92.40
23815;DHT22;12088;53.078;8.720;2023-04-03T13:04:24;17.00;92.00
23815;DHT22;12088;53.078;8.720;2023-04-03T13:06:50;17.90;87.60
23815;DHT22;12088;53.078;8.720;2023-04-03T13:09:22;18.20;89.30
23815;DHT22;12088;53.078;8.720;2023-04-03T13:11:50;19.10;89.10
23815;DHT22;12088;53.078;8.720;2023-04-03T13:14:19;18.80;91.40
23815;DHT22;12088;53.078;8.720;2023-04-03T13:17:00;17.80;89.80
23815;DHT22;12088;53.078;8.720;2023-04-03T13:19:35;16.10;88.10
23815;DHT22;12088;53.078;8.720;2023-04-03T13:24:57;17.00;91.20
23815;DHT22;12088;53.078;8.720;2023-04-03T13:27:27;17.80;90.00
23815;DHT22;12088;53.078;8.720;2023-04-03T13:29:58;17.00;90.50
23815;DHT22;12088;53.078;8.720;2023-04-03T13:32:30;17.90;92.30
23815;DHT22;12088;53.078;8.720;2023-04-03T13:34:56;17.90;90.00
23815;DHT22;12088;53.078;8.720;2023-04-03T13:40:12;15.70;90.90
23815;DHT22;12088;53.078;8.720;2023-04-03T13:42:41;15.20;91.10
23815;DHT22;12088;53.078;8.720;2023-04-03T13:47:40;17.00;91.50
23815;DHT22;12088;53.078;8.720;2023-04-03T13:52:55;16.80;91.20
23815;DHT22;12088;53.078;8.720;2023-04-03T13:55:30;16.80;88.20
23815;DHT22;12088;53.078;8.720;2023-04-03T13:58:16;14.40;90.10
23815;DHT22;12088;53.078;8.720;2023-04-03T14:01:00;15.30;92.50
23815;DHT22;12088;53.078;8.720;2023-04-03T14:03:33;16.60;92.30
23815;DHT22;12088;53.078;8.720;2023-04-03T14:06:00;16.20;90.40
23815;DHT22;12088;53.078;8.720;2023-04-03T14:08:27;14.60;90.40
23815;DHT22;12088;53.078;8.720;2023-04-03T14:10:53;13.30;91.50
23815;DHT22;12088;53.078;8.720;2023-04-03T14:13:19;12.10;92.60
23815;DHT22;12088;53.078;8.720;2023-04-03T14:15:51;12.00;95.10
23815;DHT22;12088;53.078;8.720;2023-04-03T14:18:19;13.70;91.90
23815;DHT22;12088;53.078;8.720;2023-04-03T14:20:51;14.70;90.90
23815;DHT22;12088;53.078;8.720;2023-04-03T14:23:23;15.10;91.10
23815;DHT22;12088;53.078;8.720;2023-04-03T14:25:48;15.80;91.10
23815;DHT22;12088;53.078;8.720;2023-04-03T14:28:20;16.00;90.70
23815;DHT22;12088;53.078;8.720;2023-04-03T14:30:48;16.20;90.20
23815;DHT22;12088;53.078;8.720;2023-04-03T14:33:20;16.00;90.00
23815;DHT22;12088;53.078;8.720;2023-04-03T14:35:47;16.10;87.80
23815;DHT22;12088;53.078;8.720;2023-04-03T14:38:28;16.50;90.30
23815;DHT22;12088;53.078;8.720;2023-04-03T14:40:58;16.00;90.70
23815;DHT22;12088;53.078;8.720;2023-04-03T14:43:24;14.10;91.70
23815;DHT22;12088;53.078;8.720;2023-04-03T14:45:51;13.20;91.50
23815;DHT22;12088;53.078;8.720;2023-04-03T14:48:20;12.20;93.20
23815;DHT22;12088;53.078;8.720;2023-04-03T14:50:47;11.30;93.60
23815;DHT22;12088;53.078;8.720;2023-04-03T14:53:13;10.50;94.60
23815;DHT22;12088;53.078;8.720;2023-04-03T14:55:42;11.00;96.30
23815;DHT22;12088;53.078;8.720;2023-04-03T14:58:15;12.20;96.10
23815;DHT22;12088;53.078;8.720;2023-04-03T15:00:42;13.10;93.90
23815;DHT22;12088;53.078;8.720;2023-04-03T15:03:26;13.30;91.20
23815;DHT22;12088;53.078;8.720;2023-04-03T15:05:51;13.30;91.80
23815;DHT22;12088;53.078;8.720;2023-04-03T15:08:20;13.60;89.30
23815;DHT22;12088;53.078;8.720;2023-04-03T15:10:47;13.30;91.80
23815;DHT22;12088;53.078;8.720;2023-04-03T15:13:13;13.90;91.70
23815;DHT22;12088;53.078;8.720;2023-04-03T15:15:42;13.70;91.40
23815;DHT22;12088;53.078;8.720;2023-04-03T15:18:15;13.10;91.40
23815;DHT22;12088;53.078;8.720;2023-04-03T15:20:42;12.20;91.70
23815;DHT22;12088;53.078;8.720;2023-04-03T15:23:09;12.40;93.60
23815;DHT22;12088;53.078;8.720;2023-04-03T15:25:35;11.80;93.00
23815;DHT22;12088;53.078;8.720;2023-04-03T15:28:01;10.80;92.20
23815;DHT22;12088;53.078;8.720;2023-04-03T15:30:27;10.20;94.10
23815;DHT22;12088;53.078;8.720;2023-04-03T15:32:52;10.10;94.90
23815;DHT22;12088;53.078;8.720;2023-04-03T15:35:18;10.50;95.20
23815;DHT22;12088;53.078;8.720;2023-04-03T15:37:44;10.60;93.70
23815;DHT22;12088;53.078;8.720;2023-04-03T15:40:10;10.80;94.60
23815;DHT22;12088;53.078;8.720;2023-04-03T15:42:35;11.00;94.60
23815;DHT22;12088;53.078;8.720;2023-04-03T15:45:01;11.00;94.60
23815;DHT22;12088;53.078;8.720;2023-04-03T15:47:27;10.80;94.40
23815;DHT22;12088;53.078;8.720;2023-04-03T15:49:56;10.70;95.90
23815;DHT22;12088;53.078;8.720;2023-04-03T15:52:28;10.40;96.70
23815;DHT22;12088;53.078;8.720;2023-04-03T15:54:57;10.30;95.40
23815;DHT22;12088;53.078;8.720;2023-04-03T15:57:25;10.00;96.20
23815;DHT22;12088;53.078;8.720;2023-04-03T15:59:52;9.60;96.50
23815;DHT22;12088;53.078;8.720;2023-04-03T16:02:18;9.00;96.40
23815;DHT22;12088;53.078;8.720;2023-04-03T16:04:45;8.90;98.00
23815;DHT22;12088;53.078;8.720;2023-04-03T16:07:13;9.00;96.60
23815;DHT22;12088;53.078;8.720;2023-04-03T16:09:38;9.00;97.40
23815;DHT22;12088;53.078;8.720;2023-04-03T16:12:07;9.10;96.80
23815;DHT22;12088;53.078;8.720;2023-04-03T16:14:36;9.00;97.60
23815;DHT22;12088;53.078;8.720;2023-04-03T16:17:01;8.90;95.80
23815;DHT22;12088;53.078;8.720;2023-04-03T16:19:29;8.90;97.00
23815;DHT22;12088;53.078;8.720;2023-04-03T16:21:58;8.90;96.70
23815;DHT22;12088;53.078;8.720;2023-04-03T16:24:23;8.60;99.00
23815;DHT22;12088;53.078;8.720;2023-04-03T16:26:49;8.80;97.10
23815;DHT22;12088;53.078;8.720;2023-04-03T16:29:15;8.90;97.30
23815;DHT22;12088;53.078;8.720;2023-04-03T16:31:40;8.90;97.10
23815;DHT22;12088;53.078;8.720;2023-04-03T16:34:06;8.70;98.20
23815;DHT22;12088;53.078;8.720;2023-04-03T16:36:32;8.60;96.20
23815;DHT22;12088;53.078;8.720;2023-04-03T16:38:57;8.50;97.30
23815;DHT22;12088;53.078;8.720;2023-04-03T16:41:23;8.60;98.30
23815;DHT22;12088;53.078;8.720;2023-04-03T16:43:48;8.60;97.70
23815;DHT22;12088;53.078;8.720;2023-04-03T16:46:15;8.40;98.20
23815;DHT22;12088;53.078;8.720;2023-04-03T16:48:40;8.30;97.30
23815;DHT22;12088;53.078;8.720;2023-04-03T16:51:06;8.20;97.70
23815;DHT22;12088;53.078;8.720;2023-04-03T16:53:31;8.20;98.00
23815;DHT22;12088;53.078;8.720;2023-04-03T16:55:58;8.10;98.20
23815;DHT22;12088;53.078;8.720;2023-04-03T16:58:27;8.00;98.90
23815;DHT22;12088;53.078;8.720;2023-04-03T17:00:52;7.90;98.30
23815;DHT22;12088;53.078;8.720;2023-04-03T17:03:19;7.90;98.00
23815;DHT22;12088;53.078;8.720;2023-04-03T17:05:47;8.00;98.00
23815;DHT22;12088;53.078;8.720;2023-04-03T17:08:13;8.00;98.00
23815;DHT22;12088;53.078;8.720;2023-04-03T17:10:39;7.90;97.80
23815;DHT22;12088;53.078;8.720;2023-04-03T17:13:05;7.80;99.00
23815;DHT22;12088;53.078;8.720;2023-04-03T17:15:30;7.80;99.50
23815;DHT22;12088;53.078;8.720;2023-04-03T17:17:56;7.70;99.10
23815;DHT22;12088;53.078;8.720;2023-04-03T17:20:22;7.60;98.40
23815;DHT22;12088;53.078;8.720;2023-04-03T17:22:47;7.60;98.40
23815;DHT22;12088;53.078;8.720;2023-04-03T17:25:13;7.50;98.90
23815;DHT22;12088;53.078;8.720;2023-04-03T17:27:40;7.40;99.10
23815;DHT22;12088;53.078;8.720;2023-04-03T17:30:06;7.20;99.90
23815;DHT22;12088;53.078;8.720;2023-04-03T17:32:32;7.10;99.60
23815;DHT22;12088;53.078;8.720;2023-04-03T17:34:58;7.10;99.50
23815;DHT22;12088;53.078;8.720;2023-04-03T17:37:23;7.10;99.90
23815;DHT22;12088;53.078;8.720;2023-04-03T17:39:49;7.10;99.90
23815;DHT22;12088;53.078;8.720;2023-04-03T17:42:14;7.10;99.90
23815;DHT22;12088;53.078;8.720;2023-04-03T17:44:43;7.00;99.90
23815;DHT22;12088;53.078;8.720;2023-04-03T17:47:09;6.80;99.90